
Distance (Route):
Temperature : 0°C
Humidity : 0%
Pressure : 0hPa| Receiver | Date | Latitude | Longitude | Direction | Speed | Altitude | Climb | Temperature | Humidity | Pressure | Voltage | Killtimer | Uptime | BKT | XDATA |
|---|---|---|---|---|---|---|---|---|---|---|---|---|---|---|---|
| DB0UT-7 | 2026-09-04 08:08:29 | 46.98188 | 4.02159 | 77° | 51km/h | 5902m | -2.2m/s | 0°C | 0% | 0hPa | 0V | 00:00:00 | 00:00:00 | 00:00:00 | |
| DB0UT-7 | 2026-09-04 08:03:28 | 46.98073 | 3.96233 | 91° | 53km/h | 6612m | -2.4m/s | 0°C | 0% | 0hPa | 0V | 00:00:00 | 00:00:00 | 00:00:00 | |
| DB0UT-7 | 2026-09-04 08:00:11 | 46.98298 | 3.92343 | 106° | 58km/h | 7098m | -2.3m/s | 0°C | 0% | 0hPa | 0V | 00:00:00 | 00:00:00 | 00:00:00 | |
| DB0UT-7 | 2026-09-04 07:59:40 | 46.98316 | 3.91659 | 108° | 60km/h | 7179m | -2.3m/s | 0°C | 0% | 0hPa | 0V | 00:00:00 | 00:00:00 | 00:00:00 | |
| DB0UT-7 | 2026-09-04 07:58:18 | 46.98517 | 3.89858 | 109° | 58km/h | 7390m | -2.4m/s | 0°C | 0% | 0hPa | 0V | 00:00:00 | 00:00:00 | 00:00:00 | |
| DB0UT-7 | 2026-09-04 07:56:17 | 46.98897 | 3.87215 | 113° | 71km/h | 7708m | -2.7m/s | 0°C | 0% | 0hPa | 0V | 00:00:00 | 00:00:00 | 00:00:00 | |
| DB0UT-7 | 2026-09-04 07:55:03 | 46.99222 | 3.85387 | 95° | 69km/h | 7896m | -2.6m/s | 0°C | 0% | 0hPa | 0V | 00:00:00 | 00:00:00 | 00:00:00 | |
| DB0UT-7 | 2026-09-04 07:54:33 | 46.99370 | 3.84653 | 95° | 71km/h | 7977m | -2.6m/s | 0°C | 0% | 0hPa | 0V | 00:00:00 | 00:00:00 | 00:00:00 | |
| DB0UT-7 | 2026-09-04 07:53:22 | 46.99668 | 3.82946 | 94° | 66km/h | 8157m | -2.5m/s | 0°C | 0% | 0hPa | 0V | 00:00:00 | 00:00:00 | 00:00:00 | |
| DB0UT-7 | 2026-09-04 07:52:52 | 46.99781 | 3.82239 | 94° | 66km/h | 8236m | -2.4m/s | 0°C | 0% | 0hPa | 0V | 00:00:00 | 00:00:00 | 00:00:00 | |
| DB0ND-19 | 2026-09-04 07:52:45 | 46.99796 | 3.82040 | 111° | 57km/h | 8254m | -2.8m/s | -24.7°C | -1.0% | -1.0hPa | 0V | 00:00:00 | 00:00:00 | 00:00:00 | |
| DB0ND-19 | 2026-09-04 07:52:14 | 46.99994 | 3.80624 | 100° | 82km/h | 8400m | -2.7m/s | -25.5°C | -1.0% | -1.0hPa | 0V | 00:00:00 | 00:00:00 | 00:00:00 | |
| DB0UT-7 | 2026-09-04 07:51:28 | 47.00033 | 3.80094 | 87° | 62km/h | 8454m | -2.8m/s | 0°C | 0% | 0hPa | 0V | 00:00:00 | 00:00:00 | 00:00:00 | |
| DB0ND-19 | 2026-09-04 07:51:12 | 47.00070 | 3.79731 | 100° | 80km/h | 8498m | -3.1m/s | -26.0°C | -1.0% | -1.0hPa | 0V | 00:00:00 | 00:00:00 | 00:00:00 | |
| DB0ND-19 | 2026-09-04 07:50:41 | 47.00115 | 3.78993 | 108° | 62km/h | 8586m | -3.0m/s | -26.8°C | -1.0% | -1.0hPa | 0V | 00:00:00 | 00:00:00 | 00:00:00 | |
| DB0ND-19 | 2026-09-04 07:50:10 | 47.00145 | 3.78270 | 93° | 46km/h | 8674m | -2.9m/s | -27.5°C | -1.0% | -1.0hPa | 0V | 00:00:00 | 00:00:00 | 00:00:00 | |
| DB0UT-7 | 2026-09-04 07:49:26 | 47.00192 | 3.77280 | 88° | 64km/h | 8811m | -2.9m/s | 0°C | 0% | 0hPa | 0V | 00:00:00 | 00:00:00 | 00:00:00 | |
| DB0ND-19 | 2026-09-04 07:49:08 | 47.00214 | 3.76845 | 85° | 68km/h | 8860m | -3.0m/s | -29.0°C | -1.0% | -1.0hPa | 0V | 00:00:00 | 00:00:00 | 00:00:00 | |
| DB0ND-19 | 2026-09-04 07:48:37 | 47.00280 | 3.76159 | 99° | 73km/h | 8955m | -3.0m/s | -29.8°C | -1.0% | -1.0hPa | 0V | 00:00:00 | 00:00:00 | 00:00:00 | |
| DB0UT-7 | 2026-09-04 07:48:15 | 47.00323 | 3.75716 | 93° | 60km/h | 9018m | -3.1m/s | 0°C | 0% | 0hPa | 0V | 00:00:00 | 00:00:00 | 00:00:00 | |
| DB0ND-19 | 2026-09-04 07:48:06 | 47.00321 | 3.75502 | 108° | 49km/h | 9045m | -3.2m/s | -30.6°C | -1.0% | -1.0hPa | 0V | 00:00:00 | 00:00:00 | 00:00:00 | |
| DB0ND-19 | 2026-09-04 07:47:34 | 47.00358 | 3.74752 | 87° | 49km/h | 9143m | -3.1m/s | -31.0°C | -1.0% | -1.0hPa | 0V | 00:00:00 | 00:00:00 | 00:00:00 | |
| DB0ND-19 | 2026-09-04 07:47:03 | 47.00395 | 3.74001 | 79° | 66km/h | 9237m | -3.0m/s | -31.7°C | -1.0% | -1.0hPa | 0V | 00:00:00 | 00:00:00 | 00:00:00 | |
| DB0UT-7 | 2026-09-04 07:46:21 | 47.00411 | 3.73019 | 99° | 69km/h | 9364m | -2.9m/s | 0°C | 0% | 0hPa | 0V | 00:00:00 | 00:00:00 | 00:00:00 | |
| DB0ND-19 | 2026-09-04 07:46:01 | 47.00430 | 3.72504 | 102° | 73km/h | 9424m | -2.9m/s | -32.6°C | -1.0% | -1.0hPa | 0V | 00:00:00 | 00:00:00 | 00:00:00 | |
| DB0ND-19 | 2026-09-04 07:45:31 | 47.00438 | 3.71708 | 95° | 53km/h | 9516m | -3.0m/s | -33.3°C | -1.0% | -1.0hPa | 0V | 00:00:00 | 00:00:00 | 00:00:00 | |
| DB0UT-7 | 2026-09-04 07:44:45 | 47.00460 | 3.70587 | 85° | 71km/h | 9649m | -3.0m/s | 0°C | 0% | 0hPa | 0V | 00:00:00 | 00:00:00 | 00:00:00 | |
| DB0ND-19 | 2026-09-04 07:44:28 | 47.00450 | 3.70125 | 85° | 84km/h | 9699m | -3.1m/s | -34.5°C | -1.0% | -1.0hPa | 0V | 00:00:00 | 00:00:00 | 00:00:00 | |
| DB0ND-19 | 2026-09-04 07:43:57 | 47.00423 | 3.69324 | 96° | 78km/h | 9793m | -3.0m/s | -35.2°C | -1.0% | -1.0hPa | 0V | 00:00:00 | 00:00:00 | 00:00:00 | |
| DB0ND-19 | 2026-09-04 07:43:26 | 47.00389 | 3.68551 | 95° | 57km/h | 9882m | -2.9m/s | -35.9°C | -1.0% | -1.0hPa | 0V | 00:00:00 | 00:00:00 | 00:00:00 | |
| DB0UT-7 | 2026-09-04 07:43:07 | 47.00382 | 3.68086 | 94° | 73km/h | 9936m | -2.9m/s | 0°C | 0% | 0hPa | 0V | 00:00:00 | 00:00:00 | 00:00:00 | |
| DB0UT-7 | 2026-09-04 07:42:37 | 47.00390 | 3.67290 | 80° | 64km/h | 10022m | -2.9m/s | 0°C | 0% | 0hPa | 0V | 00:00:00 | 00:00:00 | 00:00:00 | |
| DB0ND-19 | 2026-09-04 07:42:24 | 47.00398 | 3.66951 | 90° | 82km/h | 10061m | -2.9m/s | -37.4°C | -1.0% | -1.0hPa | 0V | 00:00:00 | 00:00:00 | 00:00:00 | |
| DB0ND-19 | 2026-09-04 07:41:53 | 47.00402 | 3.66185 | 106° | 62km/h | 10152m | -3.0m/s | -38.2°C | -1.0% | -1.0hPa | 0V | 00:00:00 | 00:00:00 | 00:00:00 | |
| DB0UT-7 | 2026-09-04 07:41:24 | 47.00420 | 3.65477 | 78° | 64km/h | 10237m | -3.0m/s | 0°C | 0% | 0hPa | 0V | 00:00:00 | 00:00:00 | 00:00:00 | |
| DB0ND-19 | 2026-09-04 07:41:22 | 47.00407 | 3.65354 | 95° | 47km/h | 10252m | -3.0m/s | -39.0°C | -1.0% | -1.0hPa | 0V | 00:00:00 | 00:00:00 | 00:00:00 | |
| DB0UT-7 | 2026-09-04 07:40:53 | 47.00430 | 3.64757 | 97° | 71km/h | 10329m | -2.9m/s | 0°C | 0% | 0hPa | 0V | 00:00:00 | 00:00:00 | 00:00:00 | |
| DB0ND-19 | 2026-09-04 07:40:51 | 47.00413 | 3.64527 | 82° | 51km/h | 10353m | -3.0m/s | -39.7°C | -1.0% | -1.0hPa | 0V | 00:00:00 | 00:00:00 | 00:00:00 | |
| DB0UT-7 | 2026-09-04 07:39:39 | 47.00470 | 3.62929 | 89° | 68km/h | 10553m | -3.2m/s | 0°C | 0% | 0hPa | 0V | 00:00:00 | 00:00:00 | 00:00:00 | |
| DB0UT-7 | 2026-09-04 07:39:09 | 47.00459 | 3.62177 | 104° | 68km/h | 10646m | -3.1m/s | 0°C | 0% | 0hPa | 0V | 00:00:00 | 00:00:00 | 00:00:00 | |
| DB0ND-19 | 2026-09-04 07:38:47 | 47.00481 | 3.61545 | 93° | 84km/h | 10716m | -3.1m/s | -42.7°C | -1.0% | -1.0hPa | 0V | 00:00:00 | 00:00:00 | 00:00:00 | |
| DB0UT-7 | 2026-09-04 07:38:26 | 47.00500 | 3.61054 | 92° | 69km/h | 10776m | -3.0m/s | 0°C | 0% | 0hPa | 0V | 00:00:00 | 00:00:00 | 00:00:00 | |
| DB0ND-19 | 2026-09-04 07:38:16 | 47.00470 | 3.60778 | 100° | 57km/h | 10810m | -3.2m/s | -43.6°C | -1.0% | -1.0hPa | 0V | 00:00:00 | 00:00:00 | 00:00:00 | |
| DB0UT-7 | 2026-09-04 07:37:55 | 47.00480 | 3.60283 | 105° | 73km/h | 10876m | -3.2m/s | 0°C | 0% | 0hPa | 0V | 00:00:00 | 00:00:00 | 00:00:00 | |
| DB0ND-19 | 2026-09-04 07:37:45 | 47.00480 | 3.59977 | 75° | 64km/h | 10908m | -3.3m/s | -44.4°C | -1.0% | -1.0hPa | 0V | 00:00:00 | 00:00:00 | 00:00:00 | |
| DB0UT-7 | 2026-09-04 07:37:25 | 47.00472 | 3.59501 | 77° | 66km/h | 10972m | -3.3m/s | 0°C | 0% | 0hPa | 0V | 00:00:00 | 00:00:00 | 00:00:00 | |
| DB0ND-19 | 2026-09-04 07:37:14 | 47.00489 | 3.59205 | 90° | 84km/h | 11006m | -3.2m/s | -45.3°C | -1.0% | -1.0hPa | 0V | 00:00:00 | 00:00:00 | 00:00:00 | |
| DB0ND-19 | 2026-09-04 07:36:43 | 47.00457 | 3.58423 | 100° | 62km/h | 11103m | -3.2m/s | -46.1°C | -1.0% | -1.0hPa | 0V | 00:00:00 | 00:00:00 | 00:00:00 | |
| DB0UT-7 | 2026-09-04 07:36:13 | 47.00446 | 3.57641 | 77° | 71km/h | 11198m | -3.1m/s | 0°C | 0% | 0hPa | 0V | 00:00:00 | 00:00:00 | 00:00:00 | |
| DB0ND-19 | 2026-09-04 07:36:12 | 47.00433 | 3.57566 | 76° | 62km/h | 11204m | -3.3m/s | -46.9°C | -1.0% | -1.0hPa | 0V | 00:00:00 | 00:00:00 | 00:00:00 | |
| DB0UT-7 | 2026-09-04 07:35:43 | 47.00436 | 3.56886 | 101° | 77km/h | 11292m | -3.2m/s | 0°C | 0% | 0hPa | 0V | 00:00:00 | 00:00:00 | 00:00:00 | |
| DB0ND-19 | 2026-09-04 07:35:41 | 47.00442 | 3.56793 | 89° | 86km/h | 11299m | -3.2m/s | -47.7°C | -1.0% | -1.0hPa | 0V | 00:00:00 | 00:00:00 | 00:00:00 | |
| DB0ND-19 | 2026-09-04 07:35:10 | 47.00431 | 3.56001 | 104° | 66km/h | 11397m | -3.5m/s | -48.6°C | -1.0% | -1.0hPa | 0V | 00:00:00 | 00:00:00 | 00:00:00 | |
| DB0UT-7 | 2026-09-04 07:34:56 | 47.00431 | 3.55627 | 82° | 71km/h | 11442m | -3.2m/s | 0°C | 0% | 0hPa | 0V | 00:00:00 | 00:00:00 | 00:00:00 | |
| DB0UT-7 | 2026-09-04 07:34:26 | 47.00470 | 3.54818 | 98° | 77km/h | 11537m | -3.2m/s | 0°C | 0% | 0hPa | 0V | 00:00:00 | 00:00:00 | 00:00:00 | |
| DB0ND-19 | 2026-09-04 07:34:08 | 47.00502 | 3.54307 | 102° | 88km/h | 11594m | -3.2m/s | -50.0°C | -1.0% | -1.0hPa | 0V | 00:00:00 | 00:00:00 | 00:00:00 | |
| DB0UT-7 | 2026-09-04 07:33:57 | 47.00503 | 3.54017 | 110° | 77km/h | 11655m | -3.2m/s | 0°C | 0% | 0hPa | 0V | 00:00:00 | 00:00:00 | 00:00:00 | |
| DB0UT-7 | 2026-09-04 07:33:04 | 47.00640 | 3.52572 | 85° | 69km/h | 11797m | -3.2m/s | 0°C | 0% | 0hPa | 0V | 00:00:00 | 00:00:00 | 00:00:00 | |
| DB0UT-7 | 2026-09-04 07:32:34 | 47.00728 | 3.51807 | 105° | 75km/h | 11891m | -3.1m/s | 0°C | 0% | 0hPa | 0V | 00:00:00 | 00:00:00 | 00:00:00 | |
| DB0UT-7 | 2026-09-04 07:32:04 | 47.00771 | 3.50971 | 88° | 73km/h | 11998m | -3.2m/s | 0°C | 0% | 0hPa | 0V | 00:00:00 | 00:00:00 | 00:00:00 | |
| DB0ND-19 | 2026-09-04 07:32:03 | 47.00771 | 3.50949 | 91° | 57km/h | 11988m | -3.2m/s | -53.3°C | -1.0% | -1.0hPa | 0V | 00:00:00 | 00:00:00 | 00:00:00 | |
| DB0UT-7 | 2026-09-04 07:31:34 | 47.00850 | 3.50173 | 95° | 71km/h | 12084m | -3.1m/s | 0°C | 0% | 0hPa | 0V | 00:00:00 | 00:00:00 | 00:00:00 | |
| DB0ND-19 | 2026-09-04 07:31:32 | 47.00847 | 3.50051 | 82° | 75km/h | 12094m | -3.2m/s | -54.1°C | -1.0% | -1.0hPa | 0V | 00:00:00 | 00:00:00 | 00:00:00 | |
| DB0UT-7 | 2026-09-04 07:31:03 | 47.00885 | 3.49373 | 110° | 77km/h | 12185m | -3.4m/s | 0°C | 0% | 0hPa | 0V | 00:00:00 | 00:00:00 | 00:00:00 | |
| DB0ND-19 | 2026-09-04 07:31:01 | 47.00903 | 3.49297 | 106° | 80km/h | 12191m | -3.2m/s | -54.8°C | -1.0% | -1.0hPa | 0V | 00:00:00 | 00:00:00 | 00:00:00 | |
| DB0UT-7 | 2026-09-04 07:30:33 | 47.00954 | 3.48533 | 84° | 75km/h | 12283m | -3.2m/s | 0°C | 0% | 0hPa | 0V | 00:00:00 | 00:00:00 | 00:00:00 | |
| DB0ND-19 | 2026-09-04 07:30:30 | 47.00957 | 3.48416 | 104° | 62km/h | 12296m | -3.2m/s | -55.7°C | -1.0% | -1.0hPa | 0V | 00:00:00 | 00:00:00 | 00:00:00 | |
| DB0ND-19 | 2026-09-04 07:29:59 | 47.01051 | 3.47547 | 89° | 88km/h | 12393m | -3.4m/s | -56.5°C | -1.0% | -1.0hPa | 0V | 00:00:00 | 00:00:00 | 00:00:00 | |
| DB0UT-7 | 2026-09-04 07:29:26 | 47.01149 | 3.46666 | 111° | 78km/h | 12501m | -3.4m/s | 0°C | 0% | 0hPa | 0V | 00:00:00 | 00:00:00 | 00:00:00 | |
| DB0UT-7 | 2026-09-04 07:28:56 | 47.01224 | 3.45808 | 91° | 75km/h | 12601m | -3.4m/s | 0°C | 0% | 0hPa | 0V | 00:00:00 | 00:00:00 | 00:00:00 | |
| DB0UT-7 | 2026-09-04 07:28:26 | 47.01332 | 3.44997 | 96° | 71km/h | 12701m | -3.2m/s | 0°C | 0% | 0hPa | 0V | 00:00:00 | 00:00:00 | 00:00:00 | |
| DB0UT-7 | 2026-09-04 07:27:56 | 47.01382 | 3.44199 | 109° | 78km/h | 12804m | -3.4m/s | 0°C | 0% | 0hPa | 0V | 00:00:00 | 00:00:00 | 00:00:00 | |
| DB0ND-19 | 2026-09-04 07:27:55 | 47.01407 | 3.44098 | 106° | 82km/h | 12814m | -3.3m/s | -59.8°C | -1.0% | -1.0hPa | 0V | 00:00:00 | 00:00:00 | 00:00:00 | |
| DB0UT-7 | 2026-09-04 07:27:26 | 47.01466 | 3.43374 | 85° | 68km/h | 12907m | -3.3m/s | 0°C | 0% | 0hPa | 0V | 00:00:00 | 00:00:00 | 00:00:00 | |
| DB0ND-19 | 2026-09-04 07:27:24 | 47.01463 | 3.43283 | 95° | 53km/h | 12918m | -3.4m/s | -60.7°C | -1.0% | -1.0hPa | 0V | 00:00:00 | 00:00:00 | 00:00:00 | |
| DB0UT-7 | 2026-09-04 07:26:56 | 47.01560 | 3.42632 | 112° | 77km/h | 13012m | -3.5m/s | 0°C | 0% | 0hPa | 0V | 00:00:00 | 00:00:00 | 00:00:00 | |
| DB0ND-19 | 2026-09-04 07:26:53 | 47.01581 | 3.42507 | 95° | 86km/h | 13022m | -3.3m/s | -61.7°C | -1.0% | -1.0hPa | 0V | 00:00:00 | 00:00:00 | 00:00:00 | |
| DB0UT-7 | 2026-09-04 07:26:26 | 47.01629 | 3.41828 | 91° | 71km/h | 13117m | -3.4m/s | 0°C | 0% | 0hPa | 0V | 00:00:00 | 00:00:00 | 00:00:00 | |
| DB0ND-19 | 2026-09-04 07:26:22 | 47.01654 | 3.41699 | 109° | 75km/h | 13135m | -3.5m/s | -62.4°C | -1.0% | -1.0hPa | 0V | 00:00:00 | 00:00:00 | 00:00:00 | |
| DB0UT-7 | 2026-09-04 07:25:56 | 47.01714 | 3.41031 | 95° | 73km/h | 13225m | -3.5m/s | 0°C | 0% | 0hPa | 0V | 00:00:00 | 00:00:00 | 00:00:00 | |
| DB0UT-7 | 2026-09-04 07:25:26 | 47.01788 | 3.40242 | 114° | 68km/h | 13333m | -3.6m/s | 0°C | 0% | 0hPa | 0V | 00:00:00 | 00:00:00 | 00:00:00 | |
| DB0ND-19 | 2026-09-04 07:25:20 | 47.01864 | 3.39870 | 89° | 68km/h | 13379m | -3.5m/s | -63.7°C | -1.0% | -1.0hPa | 0V | 00:00:00 | 00:00:00 | 00:00:00 | |
| DB0UT-7 | 2026-09-04 07:24:47 | 47.01940 | 3.39281 | 113° | 78km/h | 13485m | -3.6m/s | 0°C | 0% | 0hPa | 0V | 00:00:00 | 00:00:00 | 00:00:00 | |
| DB0UT-7 | 2026-09-04 07:24:14 | 47.02036 | 3.38360 | 84° | 77km/h | 13594m | -3.3m/s | 0°C | 0% | 0hPa | 0V | 00:00:00 | 00:00:00 | 00:00:00 | |
| DB0UT-7 | 2026-09-04 07:23:44 | 47.02135 | 3.37535 | 114° | 77km/h | 13701m | -3.5m/s | 0°C | 0% | 0hPa | 0V | 00:00:00 | 00:00:00 | 00:00:00 | |
| DB0UT-7 | 2026-09-04 07:23:14 | 47.02240 | 3.36720 | 102° | 71km/h | 13811m | -3.8m/s | 0°C | 0% | 0hPa | 0V | 00:00:00 | 00:00:00 | 00:00:00 | |
| DB0UT-7 | 2026-09-04 07:22:43 | 47.02384 | 3.35934 | 91° | 69km/h | 13926m | -3.8m/s | 0°C | 0% | 0hPa | 0V | 00:00:00 | 00:00:00 | 00:00:00 | |
| DB0UT-7 | 2026-09-04 07:22:13 | 47.02464 | 3.35214 | 117° | 68km/h | 14041m | -3.7m/s | 0°C | 0% | 0hPa | 0V | 00:00:00 | 00:00:00 | 00:00:00 | |
| DB0UT-7 | 2026-09-04 07:21:43 | 47.02538 | 3.34473 | 77° | 66km/h | 14156m | -4.0m/s | 0°C | 0% | 0hPa | 0V | 00:00:00 | 00:00:00 | 00:00:00 | |
| DB0UT-7 | 2026-09-04 07:21:13 | 47.02636 | 3.33797 | 100° | 68km/h | 14273m | -3.9m/s | 0°C | 0% | 0hPa | 0V | 00:00:00 | 00:00:00 | 00:00:00 | |
| DB0ND-19 | 2026-09-04 07:21:12 | 47.02641 | 3.33733 | 91° | 84km/h | 14277m | -4.0m/s | -65.8°C | -1.0% | -1.0hPa | 0V | 00:00:00 | 00:00:00 | 00:00:00 | |
| DB0UT-7 | 2026-09-04 07:20:43 | 47.02675 | 3.33053 | 106° | 68km/h | 14392m | -3.8m/s | 0°C | 0% | 0hPa | 0V | 00:00:00 | 00:00:00 | 00:00:00 | |
| DB0ND-19 | 2026-09-04 07:20:41 | 47.02691 | 3.32996 | 115° | 64km/h | 14399m | -3.9m/s | -65.8°C | -1.0% | -1.0hPa | 0V | 00:00:00 | 00:00:00 | 00:00:00 | |
| DB0ND-19 | 2026-09-04 07:20:10 | 47.02743 | 3.32206 | 73° | 69km/h | 14522m | -3.8m/s | -66.0°C | -1.0% | -1.0hPa | 0V | 00:00:00 | 00:00:00 | 00:00:00 | |
| DB0UT-7 | 2026-09-04 07:19:43 | 47.02725 | 3.31523 | 105° | 82km/h | 14627m | -3.8m/s | 0°C | 0% | 0hPa | 0V | 00:00:00 | 00:00:00 | 00:00:00 | |
| DB0ND-19 | 2026-09-04 07:19:39 | 47.02750 | 3.31331 | 93° | 100km/h | 14647m | -3.9m/s | -65.0°C | -1.0% | -1.0hPa | 0V | 00:00:00 | 00:00:00 | 00:00:00 | |
| DB0UT-7 | 2026-09-04 07:19:12 | 47.02789 | 3.30596 | 87° | 64km/h | 14749m | -3.8m/s | 0°C | 0% | 0hPa | 0V | 00:00:00 | 00:00:00 | 00:00:00 | |
| DB0ND-19 | 2026-09-04 07:19:08 | 47.02801 | 3.30436 | 117° | 51km/h | 14778m | -4.3m/s | -64.0°C | -1.0% | -1.0hPa | 0V | 00:00:00 | 00:00:00 | 00:00:00 | |
| DB0UT-7 | 2026-09-04 07:18:42 | 47.02879 | 3.29945 | 116° | 66km/h | 14871m | -4.0m/s | 0°C | 0% | 0hPa | 0V | 00:00:00 | 00:00:00 | 00:00:00 | |
| DB0UT-7 | 2026-09-04 07:18:12 | 47.02911 | 3.29216 | 77° | 62km/h | 14996m | -4.0m/s | 0°C | 0% | 0hPa | 0V | 00:00:00 | 00:00:00 | 00:00:00 | |
| DB0ND-19 | 2026-09-04 07:18:06 | 47.02929 | 3.29089 | 113° | 66km/h | 15020m | -4.3m/s | -63.1°C | -1.0% | -1.0hPa | 0V | 00:00:00 | 00:00:00 | 00:00:00 | |
| DB0UT-7 | 2026-09-04 07:17:42 | 47.02991 | 3.28554 | 101° | 53km/h | 15123m | -4.5m/s | 0°C | 0% | 0hPa | 0V | 00:00:00 | 00:00:00 | 00:00:00 | |
| DB0ND-19 | 2026-09-04 07:17:35 | 47.02989 | 3.28378 | 88° | 33km/h | 15152m | -4.2m/s | -62.5°C | -1.0% | -1.0hPa | 0V | 00:00:00 | 00:00:00 | 00:00:00 | |
| DB0UT-7 | 2026-09-04 07:17:12 | 47.03023 | 3.27974 | 116° | 62km/h | 15253m | -4.3m/s | 0°C | 0% | 0hPa | 0V | 00:00:00 | 00:00:00 | 00:00:00 | |
| DB0ND-19 | 2026-09-04 07:17:04 | 47.03035 | 3.27743 | 69° | 62km/h | 15293m | -4.7m/s | -61.9°C | -1.0% | -1.0hPa | 0V | 00:00:00 | 00:00:00 | 00:00:00 | |
| DB0UT-7 | 2026-09-04 07:16:42 | 47.03030 | 3.27347 | 77° | 44km/h | 15386m | -4.2m/s | 0°C | 0% | 0hPa | 0V | 00:00:00 | 00:00:00 | 00:00:00 | |
| DB0ND-19 | 2026-09-04 07:16:32 | 47.03062 | 3.27215 | 120° | 64km/h | 15427m | -4.5m/s | -61.8°C | -1.0% | -1.0hPa | 0V | 00:00:00 | 00:00:00 | 00:00:00 | |
| DB0UT-7 | 2026-09-04 07:16:11 | 47.03148 | 3.26864 | 100° | 49km/h | 15528m | -4.6m/s | 0°C | 0% | 0hPa | 0V | 00:00:00 | 00:00:00 | 00:00:00 | |
| DB0ND-19 | 2026-09-04 07:16:01 | 47.03160 | 3.26709 | 137° | 42km/h | 15576m | -4.8m/s | -61.4°C | -1.0% | -1.0hPa | 0V | 00:00:00 | 00:00:00 | 00:00:00 | |
| DB0UT-7 | 2026-09-04 07:15:41 | 47.03223 | 3.26396 | 127° | 55km/h | 15670m | -4.7m/s | 0°C | 0% | 0hPa | 0V | 00:00:00 | 00:00:00 | 00:00:00 | |
| DB0ND-19 | 2026-09-04 07:15:30 | 47.03232 | 3.26152 | 84° | 26km/h | 15722m | -4.7m/s | -61.9°C | -1.0% | -1.0hPa | 0V | 00:00:00 | 00:00:00 | 00:00:00 | |
| DB0UT-7 | 2026-09-04 07:15:11 | 47.03285 | 3.25825 | 105° | 46km/h | 15812m | -4.5m/s | 0°C | 0% | 0hPa | 0V | 00:00:00 | 00:00:00 | 00:00:00 | |
| DB0UT-7 | 2026-09-04 07:14:41 | 47.03401 | 3.25377 | 72° | 44km/h | 15954m | -5.0m/s | 0°C | 0% | 0hPa | 0V | 00:00:00 | 00:00:00 | 00:00:00 | |
| DB0UT-7 | 2026-09-04 07:14:11 | 47.03502 | 3.24969 | 101° | 42km/h | 16102m | -5.0m/s | 0°C | 0% | 0hPa | 0V | 00:00:00 | 00:00:00 | 00:00:00 | |
| DB0UT-7 | 2026-09-04 07:13:41 | 47.03589 | 3.24550 | 141° | 47km/h | 16251m | -4.8m/s | 0°C | 0% | 0hPa | 0V | 00:00:00 | 00:00:00 | 00:00:00 | |
| DB0UT-7 | 2026-09-04 07:13:11 | 47.03658 | 3.24140 | 88° | 38km/h | 16401m | -4.8m/s | 0°C | 0% | 0hPa | 0V | 00:00:00 | 00:00:00 | 00:00:00 | |
| DB0UT-7 | 2026-09-04 07:12:40 | 47.03701 | 3.23754 | 55° | 42km/h | 16561m | -5.1m/s | 0°C | 0% | 0hPa | 0V | 00:00:00 | 00:00:00 | 00:00:00 | |
| DB0UT-7 | 2026-09-04 07:12:10 | 47.03750 | 3.23312 | 92° | 44km/h | 16719m | -5.2m/s | 0°C | 0% | 0hPa | 0V | 00:00:00 | 00:00:00 | 00:00:00 | |
| DB0UT-7 | 2026-09-04 07:11:40 | 47.03732 | 3.22885 | 126° | 47km/h | 16879m | -5.5m/s | 0°C | 0% | 0hPa | 0V | 00:00:00 | 00:00:00 | 00:00:00 | |
| DB0UT-7 | 2026-09-04 07:11:10 | 47.03704 | 3.22386 | 111° | 57km/h | 17040m | -5.3m/s | 0°C | 0% | 0hPa | 0V | 00:00:00 | 00:00:00 | 00:00:00 | |
| DB0UT-7 | 2026-09-04 07:10:40 | 47.03827 | 3.21843 | 75° | 40km/h | 17203m | -5.8m/s | 0°C | 0% | 0hPa | 0V | 00:00:00 | 00:00:00 | 00:00:00 | |
| DB0UT-7 | 2026-09-04 07:10:10 | 47.03890 | 3.21449 | 95° | 38km/h | 17372m | -5.1m/s | 0°C | 0% | 0hPa | 0V | 00:00:00 | 00:00:00 | 00:00:00 | |
| DB0UT-7 | 2026-09-04 07:09:39 | 47.04008 | 3.21121 | 66° | 24km/h | 17549m | -5.5m/s | 0°C | 0% | 0hPa | 0V | 00:00:00 | 00:00:00 | 00:00:00 | |
| DB0UT-7 | 2026-09-04 07:09:09 | 47.04116 | 3.21033 | 157° | 22km/h | 17649m | 4.7m/s | 0°C | 0% | 0hPa | 0V | 00:00:00 | 00:00:00 | 00:00:00 | |
| DB0UT-7 | 2026-09-04 07:08:39 | 47.04244 | 3.20897 | 130° | 33km/h | 17514m | 4.6m/s | 0°C | 0% | 0hPa | 0V | 00:00:00 | 00:00:00 | 00:00:00 | |
| DB0UT-7 | 2026-09-04 07:08:09 | 47.04382 | 3.20602 | 121° | 38km/h | 17380m | 3.5m/s | 0°C | 0% | 0hPa | 0V | 00:00:00 | 00:00:00 | 00:00:00 | |
| DB0UT-7 | 2026-09-04 07:07:39 | 47.04441 | 3.20188 | 114° | 46km/h | 17244m | 3.8m/s | 0°C | 0% | 0hPa | 0V | 00:00:00 | 00:00:00 | 00:00:00 | |
| DB0UT-7 | 2026-09-04 07:07:09 | 47.04540 | 3.19696 | 108° | 47km/h | 17112m | 4.6m/s | 0°C | 0% | 0hPa | 0V | 00:00:00 | 00:00:00 | 00:00:00 | |
| DB0UT-7 | 2026-09-04 07:06:38 | 47.04589 | 3.19169 | 88° | 40km/h | 16979m | 4.8m/s | 0°C | 0% | 0hPa | 0V | 00:00:00 | 00:00:00 | 00:00:00 | |
| DB0UT-7 | 2026-09-04 07:06:08 | 47.04564 | 3.18735 | 90° | 44km/h | 16849m | 4.6m/s | 0°C | 0% | 0hPa | 0V | 00:00:00 | 00:00:00 | 00:00:00 | |
| DB0UT-7 | 2026-09-04 07:05:38 | 47.04582 | 3.18251 | 94° | 40km/h | 16719m | 3.5m/s | 0°C | 0% | 0hPa | 0V | 00:00:00 | 00:00:00 | 00:00:00 | |
| DB0UT-7 | 2026-09-04 07:05:08 | 47.04613 | 3.17813 | 98° | 29km/h | 16587m | 5.5m/s | 0°C | 0% | 0hPa | 0V | 00:00:00 | 00:00:00 | 00:00:00 | |
| DB0UT-7 | 2026-09-04 07:04:08 | 47.04719 | 3.17188 | 125° | 38km/h | 16315m | 3.9m/s | 0°C | 0% | 0hPa | 0V | 00:00:00 | 00:00:00 | 00:00:00 | |
| DB0UT-7 | 2026-09-04 07:03:38 | 47.04839 | 3.16795 | 111° | 44km/h | 16174m | 4.5m/s | 0°C | 0% | 0hPa | 0V | 00:00:00 | 00:00:00 | 00:00:00 | |
| DB0ND-19 | 2026-09-04 07:03:37 | 47.04846 | 3.16767 | 110° | 37km/h | 16169m | 4.9m/s | -61.5°C | -1.0% | -1.0hPa | 0V | 00:00:00 | 00:00:00 | 00:00:00 | |
| DB0UT-7 | 2026-09-04 07:03:07 | 47.04948 | 3.16329 | 110° | 40km/h | 16030m | 5.1m/s | 0°C | 0% | 0hPa | 0V | 00:00:00 | 00:00:00 | 00:00:00 | |
| DB0ND-19 | 2026-09-04 07:03:06 | 47.04959 | 3.16284 | 113° | 42km/h | 16021m | 4.8m/s | -61.0°C | -1.0% | -1.0hPa | 0V | 00:00:00 | 00:00:00 | 00:00:00 | |
| DB0UT-7 | 2026-09-04 07:02:37 | 47.05045 | 3.15913 | 106° | 49km/h | 15894m | 4.0m/s | 0°C | 0% | 0hPa | 0V | 00:00:00 | 00:00:00 | 00:00:00 | |
| DB0UT-7 | 2026-09-04 07:02:07 | 47.05151 | 3.15393 | 105° | 51km/h | 15759m | 3.8m/s | 0°C | 0% | 0hPa | 0V | 00:00:00 | 00:00:00 | 00:00:00 | |
| DB0ND-19 | 2026-09-04 07:02:04 | 47.05162 | 3.15316 | 100° | 55km/h | 15746m | 4.3m/s | -62.3°C | -1.0% | -1.0hPa | 0V | 00:00:00 | 00:00:00 | 00:00:00 | |
| DB0UT-7 | 2026-09-04 07:01:37 | 47.05216 | 3.14835 | 99° | 49km/h | 15627m | 3.7m/s | 0°C | 0% | 0hPa | 0V | 00:00:00 | 00:00:00 | 00:00:00 | |
| DB0ND-19 | 2026-09-04 07:01:33 | 47.05228 | 3.14742 | 105° | 51km/h | 15609m | 4.1m/s | -61.9°C | -1.0% | -1.0hPa | 0V | 00:00:00 | 00:00:00 | 00:00:00 | |
| DB0UT-7 | 2026-09-04 07:01:07 | 47.05314 | 3.14320 | 112° | 51km/h | 15495m | 3.1m/s | 0°C | 0% | 0hPa | 0V | 00:00:00 | 00:00:00 | 00:00:00 | |
| DB0ND-19 | 2026-09-04 07:01:01 | 47.05348 | 3.14187 | 113° | 51km/h | 15464m | 4.5m/s | -62.4°C | -1.0% | -1.0hPa | 0V | 00:00:00 | 00:00:00 | 00:00:00 | |
| DB0UT-7 | 2026-09-04 07:00:37 | 47.05415 | 3.13780 | 98° | 55km/h | 15362m | 4.9m/s | 0°C | 0% | 0hPa | 0V | 00:00:00 | 00:00:00 | 00:00:00 | |
| DB0ND-19 | 2026-09-04 07:00:30 | 47.05416 | 3.13614 | 92° | 51km/h | 15331m | 5.1m/s | -62.5°C | -1.0% | -1.0hPa | 0V | 00:00:00 | 00:00:00 | 00:00:00 | |
| DB0UT-7 | 2026-09-04 07:00:06 | 47.05423 | 3.13160 | 96° | 57km/h | 15226m | 5.0m/s | 0°C | 0% | 0hPa | 0V | 00:00:00 | 00:00:00 | 00:00:00 | |
| DB0ND-19 | 2026-09-04 06:59:59 | 47.05437 | 3.12999 | 97° | 51km/h | 15195m | 4.5m/s | -62.8°C | -1.0% | -1.0hPa | 0V | 00:00:00 | 00:00:00 | 00:00:00 | |
| DB0UT-7 | 2026-09-04 06:59:36 | 47.05519 | 3.12547 | 102° | 66km/h | 15097m | 5.1m/s | 0°C | 0% | 0hPa | 0V | 00:00:00 | 00:00:00 | 00:00:00 | |
| DB0UT-7 | 2026-09-04 06:59:06 | 47.05576 | 3.11827 | 97° | 62km/h | 14966m | 4.5m/s | 0°C | 0% | 0hPa | 0V | 00:00:00 | 00:00:00 | 00:00:00 | |
| DB0ND-19 | 2026-09-04 06:58:57 | 47.05592 | 3.11593 | 95° | 62km/h | 14930m | 3.9m/s | -63.8°C | -1.0% | -1.0hPa | 0V | 00:00:00 | 00:00:00 | 00:00:00 | |
| DB0UT-7 | 2026-09-04 06:58:36 | 47.05643 | 3.11139 | 104° | 68km/h | 14839m | 3.9m/s | 0°C | 0% | 0hPa | 0V | 00:00:00 | 00:00:00 | 00:00:00 | |
| DB0ND-19 | 2026-09-04 06:58:26 | 47.05687 | 3.10867 | 105° | 68km/h | 14791m | 4.9m/s | -63.9°C | -1.0% | -1.0hPa | 0V | 00:00:00 | 00:00:00 | 00:00:00 | |
| DB0UT-7 | 2026-09-04 06:58:06 | 47.05767 | 3.10418 | 101° | 80km/h | 14708m | 4.8m/s | 0°C | 0% | 0hPa | 0V | 00:00:00 | 00:00:00 | 00:00:00 | |
| DB0ND-19 | 2026-09-04 06:57:55 | 47.05800 | 3.10068 | 95° | 78km/h | 14660m | 5.0m/s | -65.0°C | -1.0% | -1.0hPa | 0V | 00:00:00 | 00:00:00 | 00:00:00 | |
| DB0UT-7 | 2026-09-04 06:57:36 | 47.05821 | 3.09531 | 91° | 73km/h | 14578m | 5.0m/s | 0°C | 0% | 0hPa | 0V | 00:00:00 | 00:00:00 | 00:00:00 | |
| DB0ND-19 | 2026-09-04 06:57:24 | 47.05816 | 3.09162 | 88° | 73km/h | 14526m | 4.7m/s | -66.0°C | -1.0% | -1.0hPa | 0V | 00:00:00 | 00:00:00 | 00:00:00 | |
| DB0UT-7 | 2026-09-04 06:57:06 | 47.05827 | 3.08727 | 97° | 66km/h | 14450m | 3.6m/s | 0°C | 0% | 0hPa | 0V | 00:00:00 | 00:00:00 | 00:00:00 | |
| DB0UT-7 | 2026-09-04 06:56:35 | 47.05903 | 3.07986 | 97° | 68km/h | 14321m | 4.7m/s | 0°C | 0% | 0hPa | 0V | 00:00:00 | 00:00:00 | 00:00:00 | |
| DB0UT-7 | 2026-09-04 06:56:05 | 47.05995 | 3.07238 | 102° | 64km/h | 14190m | 4.2m/s | 0°C | 0% | 0hPa | 0V | 00:00:00 | 00:00:00 | 00:00:00 | |
| DB0UT-7 | 2026-09-04 06:55:35 | 47.06074 | 3.06534 | 102° | 69km/h | 14062m | 3.4m/s | 0°C | 0% | 0hPa | 0V | 00:00:00 | 00:00:00 | 00:00:00 | |
| DB0UT-7 | 2026-09-04 06:55:05 | 47.06164 | 3.05765 | 101° | 73km/h | 13933m | 3.7m/s | 0°C | 0% | 0hPa | 0V | 00:00:00 | 00:00:00 | 00:00:00 | |
| DB0UT-7 | 2026-09-04 06:54:35 | 47.06278 | 3.04964 | 104° | 78km/h | 13808m | 3.8m/s | 0°C | 0% | 0hPa | 0V | 00:00:00 | 00:00:00 | 00:00:00 | |
| DB0UT-7 | 2026-09-04 06:54:05 | 47.06397 | 3.04110 | 101° | 80km/h | 13684m | 4.1m/s | 0°C | 0% | 0hPa | 0V | 00:00:00 | 00:00:00 | 00:00:00 | |
| DB0UT-7 | 2026-09-04 06:53:34 | 47.06480 | 3.03201 | 102° | 73km/h | 13557m | 4.4m/s | 0°C | 0% | 0hPa | 0V | 00:00:00 | 00:00:00 | 00:00:00 | |
| DB0UT-7 | 2026-09-04 06:53:04 | 47.06584 | 3.02410 | 105° | 77km/h | 13425m | 3.6m/s | 0°C | 0% | 0hPa | 0V | 00:00:00 | 00:00:00 | 00:00:00 | |
| DB0UT-7 | 2026-09-04 06:52:34 | 47.06699 | 3.01583 | 100° | 77km/h | 13296m | 3.6m/s | 0°C | 0% | 0hPa | 0V | 00:00:00 | 00:00:00 | 00:00:00 | |
| DB0UT-7 | 2026-09-04 06:52:04 | 47.06765 | 3.00730 | 98° | 73km/h | 13168m | 3.9m/s | 0°C | 0% | 0hPa | 0V | 00:00:00 | 00:00:00 | 00:00:00 | |
| DB0UT-7 | 2026-09-04 06:51:34 | 47.06839 | 2.99921 | 96° | 73km/h | 13038m | 4.3m/s | 0°C | 0% | 0hPa | 0V | 00:00:00 | 00:00:00 | 00:00:00 | |
| DB0UT-7 | 2026-09-04 06:51:04 | 47.06914 | 2.99118 | 97° | 73km/h | 12904m | 4.5m/s | 0°C | 0% | 0hPa | 0V | 00:00:00 | 00:00:00 | 00:00:00 | |
| DB0UT-7 | 2026-09-04 06:50:34 | 47.06967 | 2.98306 | 94° | 75km/h | 12773m | 4.8m/s | 0°C | 0% | 0hPa | 0V | 00:00:00 | 00:00:00 | 00:00:00 | |
| DB0UT-7 | 2026-09-04 06:50:03 | 47.07020 | 2.97446 | 94° | 77km/h | 12635m | 5.6m/s | 0°C | 0% | 0hPa | 0V | 00:00:00 | 00:00:00 | 00:00:00 | |
| DB0UT-7 | 2026-09-04 06:49:33 | 47.07079 | 2.96596 | 96° | 77km/h | 12495m | 3.2m/s | 0°C | 0% | 0hPa | 0V | 00:00:00 | 00:00:00 | 00:00:00 | |
| DB0UT-7 | 2026-09-04 06:49:03 | 47.07137 | 2.95758 | 95° | 75km/h | 12358m | 3.3m/s | 0°C | 0% | 0hPa | 0V | 00:00:00 | 00:00:00 | 00:00:00 | |
| DB0ND-19 | 2026-09-04 06:48:37 | 47.07179 | 2.95017 | 95° | 71km/h | 12245m | 5.2m/s | -55.6°C | -1.0% | -1.0hPa | 0V | 00:00:00 | 00:00:00 | 00:00:00 | |
| DB0UT-7 | 2026-09-04 06:48:03 | 47.07225 | 2.94133 | 93° | 73km/h | 12096m | 5.5m/s | 0°C | 0% | 0hPa | 0V | 00:00:00 | 00:00:00 | 00:00:00 | |
| DB0UT-7 | 2026-09-04 06:47:33 | 47.07277 | 2.93324 | 98° | 73km/h | 11965m | 3.7m/s | 0°C | 0% | 0hPa | 0V | 00:00:00 | 00:00:00 | 00:00:00 | |
| DB0UT-7 | 2026-09-04 06:47:02 | 47.07342 | 2.92488 | 97° | 75km/h | 11827m | 3.5m/s | 0°C | 0% | 0hPa | 0V | 00:00:00 | 00:00:00 | 00:00:00 | |
| DB0UT-7 | 2026-09-04 06:46:32 | 47.07397 | 2.91663 | 95° | 75km/h | 11694m | 4.2m/s | 0°C | 0% | 0hPa | 0V | 00:00:00 | 00:00:00 | 00:00:00 | |
| DB0ND-19 | 2026-09-04 06:46:01 | 47.07436 | 2.90815 | 92° | 69km/h | 11563m | 4.6m/s | -50.2°C | -1.0% | -1.0hPa | 0V | 00:00:00 | 00:00:00 | 00:00:00 | |
| DB0UT-7 | 2026-09-04 06:45:32 | 47.07440 | 2.90026 | 90° | 69km/h | 11432m | 3.7m/s | 0°C | 0% | 0hPa | 0V | 00:00:00 | 00:00:00 | 00:00:00 | |
| DB0UT-7 | 2026-09-04 06:45:02 | 47.07425 | 2.89254 | 87° | 68km/h | 11301m | 4.4m/s | 0°C | 0% | 0hPa | 0V | 00:00:00 | 00:00:00 | 00:00:00 | |
| DB0UT-7 | 2026-09-04 06:44:33 | 47.07411 | 2.88511 | 87° | 66km/h | 11174m | 3.7m/s | 0°C | 0% | 0hPa | 0V | 00:00:00 | 00:00:00 | 00:00:00 | |
| DB0UT-7 | 2026-09-04 06:43:59 | 47.07374 | 2.87702 | 86° | 66km/h | 11030m | 3.3m/s | 0°C | 0% | 0hPa | 0V | 00:00:00 | 00:00:00 | 00:00:00 | |
| DB0UT-7 | 2026-09-04 06:43:29 | 47.07347 | 2.86982 | 90° | 68km/h | 10901m | 4.0m/s | 0°C | 0% | 0hPa | 0V | 00:00:00 | 00:00:00 | 00:00:00 | |
| DB0UT-7 | 2026-09-04 06:42:59 | 47.07331 | 2.86245 | 85° | 64km/h | 10780m | 4.4m/s | 0°C | 0% | 0hPa | 0V | 00:00:00 | 00:00:00 | 00:00:00 | |
| DB0UT-7 | 2026-09-04 06:42:29 | 47.07328 | 2.85527 | 92° | 66km/h | 10655m | 3.7m/s | 0°C | 0% | 0hPa | 0V | 00:00:00 | 00:00:00 | 00:00:00 | |
| DB0UT-7 | 2026-09-04 06:41:59 | 47.07329 | 2.84793 | 92° | 66km/h | 10533m | 3.1m/s | 0°C | 0% | 0hPa | 0V | 00:00:00 | 00:00:00 | 00:00:00 | |
| DB0UT-7 | 2026-09-04 06:41:29 | 47.07324 | 2.84068 | 90° | 64km/h | 10410m | 4.9m/s | 0°C | 0% | 0hPa | 0V | 00:00:00 | 00:00:00 | 00:00:00 | |
| DB0UT-7 | 2026-09-04 06:40:58 | 47.07303 | 2.83336 | 86° | 66km/h | 10280m | 3.5m/s | 0°C | 0% | 0hPa | 0V | 00:00:00 | 00:00:00 | 00:00:00 | |
| DB0UT-7 | 2026-09-04 06:40:16 | 47.07259 | 2.82319 | 89° | 68km/h | 10100m | 4.7m/s | 0°C | 0% | 0hPa | 0V | 00:00:00 | 00:00:00 | 00:00:00 | |
| DB0UT-7 | 2026-09-04 06:39:46 | 47.07236 | 2.81565 | 89° | 68km/h | 9975m | 3.5m/s | 0°C | 0% | 0hPa | 0V | 00:00:00 | 00:00:00 | 00:00:00 | |
| DB0UT-7 | 2026-09-04 06:39:16 | 47.07201 | 2.80814 | 83° | 66km/h | 9848m | 4.5m/s | 0°C | 0% | 0hPa | 0V | 00:00:00 | 00:00:00 | 00:00:00 | |
| DB0UT-7 | 2026-09-04 06:38:00 | 47.07097 | 2.78949 | 90° | 68km/h | 9537m | 4.5m/s | 0°C | 0% | 0hPa | 0V | 00:00:00 | 00:00:00 | 00:00:00 | |
| DB0UT-7 | 2026-09-04 06:37:30 | 47.07094 | 2.78205 | 89° | 68km/h | 9416m | 3.9m/s | 0°C | 0% | 0hPa | 0V | 00:00:00 | 00:00:00 | 00:00:00 | |
| DB0UT-7 | 2026-09-04 06:37:00 | 47.07080 | 2.77453 | 88° | 69km/h | 9279m | 3.7m/s | 0°C | 0% | 0hPa | 0V | 00:00:00 | 00:00:00 | 00:00:00 | |
| DB0UT-7 | 2026-09-04 06:36:25 | 47.07060 | 2.76563 | 88° | 66km/h | 9152m | 4.3m/s | 0°C | 0% | 0hPa | 0V | 00:00:00 | 00:00:00 | 00:00:00 | |
| DB0UT-7 | 2026-09-04 06:35:55 | 47.07064 | 2.75833 | 90° | 66km/h | 9036m | 4.4m/s | 0°C | 0% | 0hPa | 0V | 00:00:00 | 00:00:00 | 00:00:00 | |
| DB0UT-7 | 2026-09-04 06:35:25 | 47.07090 | 2.75110 | 95° | 66km/h | 8917m | 4.6m/s | 0°C | 0% | 0hPa | 0V | 00:00:00 | 00:00:00 | 00:00:00 | |
| DB0UT-7 | 2026-09-04 06:34:54 | 47.07099 | 2.74368 | 88° | 66km/h | 8788m | 4.7m/s | 0°C | 0% | 0hPa | 0V | 00:00:00 | 00:00:00 | 00:00:00 | |
| DB0UT-7 | 2026-09-04 06:34:24 | 47.07084 | 2.73639 | 88° | 66km/h | 8649m | 4.2m/s | 0°C | 0% | 0hPa | 0V | 00:00:00 | 00:00:00 | 00:00:00 | |
| DB0UT-7 | 2026-09-04 06:33:54 | 47.07074 | 2.72913 | 89° | 69km/h | 8540m | 4.4m/s | 0°C | 0% | 0hPa | 0V | 00:00:00 | 00:00:00 | 00:00:00 | |
| DB0UT-7 | 2026-09-04 06:33:24 | 47.07077 | 2.72149 | 91° | 73km/h | 8414m | 3.2m/s | 0°C | 0% | 0hPa | 0V | 00:00:00 | 00:00:00 | 00:00:00 |